sensor_id;sensor_type;location;lat;lon;timestamp;P1;durP1;ratioP1;P2;durP2;ratioP2
3941;SDS011;1985;48.592;8.850;2023-08-06T00:02:23;10.70;;;2.60;;
3941;SDS011;1985;48.592;8.850;2023-08-06T00:04:48;9.50;;;2.10;;
3941;SDS011;1985;48.592;8.850;2023-08-06T00:07:14;8.85;;;1.90;;
3941;SDS011;1985;48.592;8.850;2023-08-06T00:09:40;9.27;;;2.30;;
3941;SDS011;1985;48.592;8.850;2023-08-06T00:12:05;9.20;;;2.30;;
3941;SDS011;1985;48.592;8.850;2023-08-06T00:14:31;8.57;;;2.08;;
3941;SDS011;1985;48.592;8.850;2023-08-06T00:16:57;9.40;;;2.33;;
3941;SDS011;1985;48.592;8.850;2023-08-06T00:19:23;8.80;;;2.20;;
3941;SDS011;1985;48.592;8.850;2023-08-06T00:21:48;8.97;;;2.43;;
3941;SDS011;1985;48.592;8.850;2023-08-06T00:24:14;9.07;;;2.60;;
3941;SDS011;1985;48.592;8.850;2023-08-06T00:26:39;10.20;;;2.00;;
3941;SDS011;1985;48.592;8.850;2023-08-06T00:29:05;9.10;;;2.30;;
3941;SDS011;1985;48.592;8.850;2023-08-06T00:31:30;10.57;;;2.20;;
3941;SDS011;1985;48.592;8.850;2023-08-06T00:33:56;8.50;;;2.00;;
3941;SDS011;1985;48.592;8.850;2023-08-06T00:36:22;8.60;;;2.40;;
3941;SDS011;1985;48.592;8.850;2023-08-06T00:38:47;8.77;;;1.93;;
3941;SDS011;1985;48.592;8.850;2023-08-06T00:41:13;9.00;;;2.10;;
3941;SDS011;1985;48.592;8.850;2023-08-06T00:43:39;8.88;;;2.10;;
3941;SDS011;1985;48.592;8.850;2023-08-06T00:46:04;8.57;;;2.23;;
3941;SDS011;1985;48.592;8.850;2023-08-06T00:48:30;8.93;;;1.90;;
3941;SDS011;1985;48.592;8.850;2023-08-06T00:50:56;9.70;;;2.40;;
3941;SDS011;1985;48.592;8.850;2023-08-06T00:53:22;9.40;;;2.00;;
3941;SDS011;1985;48.592;8.850;2023-08-06T00:55:48;9.40;;;2.50;;
3941;SDS011;1985;48.592;8.850;2023-08-06T00:58:14;9.20;;;2.28;;
3941;SDS011;1985;48.592;8.850;2023-08-06T01:00:41;9.50;;;2.47;;
3941;SDS011;1985;48.592;8.850;2023-08-06T01:03:07;10.17;;;2.20;;
3941;SDS011;1985;48.592;8.850;2023-08-06T01:05:32;8.20;;;2.00;;
3941;SDS011;1985;48.592;8.850;2023-08-06T01:16:06;9.27;;;2.30;;
3941;SDS011;1985;48.592;8.850;2023-08-06T01:18:32;9.10;;;2.10;;
3941;SDS011;1985;48.592;8.850;2023-08-06T01:20:58;8.77;;;2.07;;
3941;SDS011;1985;48.592;8.850;2023-08-06T01:23:23;10.75;;;2.60;;
3941;SDS011;1985;48.592;8.850;2023-08-06T01:31:15;9.20;;;2.20;;
3941;SDS011;1985;48.592;8.850;2023-08-06T01:33:54;9.68;;;2.40;;
3941;SDS011;1985;48.592;8.850;2023-08-06T01:36:21;8.88;;;2.20;;
3941;SDS011;1985;48.592;8.850;2023-08-06T01:38:47;10.02;;;2.40;;
3941;SDS011;1985;48.592;8.850;2023-08-06T01:41:13;10.17;;;2.30;;
3941;SDS011;1985;48.592;8.850;2023-08-06T01:43:39;10.10;;;2.30;;
3941;SDS011;1985;48.592;8.850;2023-08-06T01:46:04;9.00;;;2.33;;
3941;SDS011;1985;48.592;8.850;2023-08-06T01:48:30;9.80;;;2.50;;
3941;SDS011;1985;48.592;8.850;2023-08-06T01:50:56;9.25;;;2.60;;
3941;SDS011;1985;48.592;8.850;2023-08-06T01:53:21;8.60;;;2.00;;
3941;SDS011;1985;48.592;8.850;2023-08-06T01:55:47;9.50;;;2.30;;
3941;SDS011;1985;48.592;8.850;2023-08-06T01:58:16;9.43;;;2.50;;
3941;SDS011;1985;48.592;8.850;2023-08-06T02:00:41;11.20;;;2.60;;
3941;SDS011;1985;48.592;8.850;2023-08-06T02:03:07;10.17;;;2.80;;
3941;SDS011;1985;48.592;8.850;2023-08-06T02:05:32;11.25;;;2.60;;
3941;SDS011;1985;48.592;8.850;2023-08-06T02:07:58;10.30;;;2.50;;
3941;SDS011;1985;48.592;8.850;2023-08-06T02:10:24;12.85;;;3.20;;
3941;SDS011;1985;48.592;8.850;2023-08-06T02:12:50;10.77;;;3.10;;
3941;SDS011;1985;48.592;8.850;2023-08-06T02:15:15;9.70;;;2.30;;
3941;SDS011;1985;48.592;8.850;2023-08-06T02:17:41;9.75;;;2.30;;
3941;SDS011;1985;48.592;8.850;2023-08-06T02:20:07;10.93;;;3.07;;
3941;SDS011;1985;48.592;8.850;2023-08-06T02:22:32;9.40;;;2.60;;
3941;SDS011;1985;48.592;8.850;2023-08-06T02:24:58;9.47;;;2.73;;
3941;SDS011;1985;48.592;8.850;2023-08-06T02:27:24;9.80;;;3.05;;
3941;SDS011;1985;48.592;8.850;2023-08-06T02:29:50;10.63;;;2.60;;
3941;SDS011;1985;48.592;8.850;2023-08-06T02:32:15;10.25;;;2.80;;
3941;SDS011;1985;48.592;8.850;2023-08-06T02:34:41;11.10;;;2.97;;
3941;SDS011;1985;48.592;8.850;2023-08-06T02:37:07;9.60;;;2.70;;
3941;SDS011;1985;48.592;8.850;2023-08-06T02:39:32;11.18;;;2.47;;
3941;SDS011;1985;48.592;8.850;2023-08-06T02:41:59;10.45;;;2.33;;
3941;SDS011;1985;48.592;8.850;2023-08-06T02:44:28;9.00;;;2.65;;
3941;SDS011;1985;48.592;8.850;2023-08-06T02:46:53;10.38;;;2.65;;
3941;SDS011;1985;48.592;8.850;2023-08-06T02:49:19;10.70;;;2.40;;
3941;SDS011;1985;48.592;8.850;2023-08-06T02:51:45;9.40;;;2.15;;
3941;SDS011;1985;48.592;8.850;2023-08-06T02:54:10;8.90;;;2.20;;
3941;SDS011;1985;48.592;8.850;2023-08-06T02:56:36;10.00;;;2.50;;
3941;SDS011;1985;48.592;8.850;2023-08-06T02:59:02;12.82;;;2.35;;
3941;SDS011;1985;48.592;8.850;2023-08-06T03:01:27;10.70;;;2.20;;
3941;SDS011;1985;48.592;8.850;2023-08-06T03:03:53;13.90;;;2.50;;
3941;SDS011;1985;48.592;8.850;2023-08-06T03:06:19;9.73;;;2.60;;
3941;SDS011;1985;48.592;8.850;2023-08-06T03:08:44;11.75;;;2.60;;
3941;SDS011;1985;48.592;8.850;2023-08-06T03:11:10;12.60;;;2.50;;
3941;SDS011;1985;48.592;8.850;2023-08-06T03:13:36;9.77;;;2.40;;
3941;SDS011;1985;48.592;8.850;2023-08-06T03:16:01;13.07;;;2.93;;
3941;SDS011;1985;48.592;8.850;2023-08-06T03:18:27;9.90;;;2.65;;
3941;SDS011;1985;48.592;8.850;2023-08-06T03:20:52;10.50;;;2.97;;
3941;SDS011;1985;48.592;8.850;2023-08-06T03:23:19;9.68;;;2.50;;
3941;SDS011;1985;48.592;8.850;2023-08-06T03:25:44;9.20;;;2.30;;
3941;SDS011;1985;48.592;8.850;2023-08-06T03:28:11;10.20;;;2.70;;
3941;SDS011;1985;48.592;8.850;2023-08-06T03:30:37;13.80;;;2.85;;
3941;SDS011;1985;48.592;8.850;2023-08-06T03:33:02;9.30;;;2.40;;
3941;SDS011;1985;48.592;8.850;2023-08-06T03:35:28;9.65;;;2.35;;
3941;SDS011;1985;48.592;8.850;2023-08-06T03:37:54;12.93;;;2.60;;
3941;SDS011;1985;48.592;8.850;2023-08-06T03:40:19;10.80;;;2.13;;
3941;SDS011;1985;48.592;8.850;2023-08-06T03:42:45;8.68;;;1.98;;
3941;SDS011;1985;48.592;8.850;2023-08-06T03:45:11;10.60;;;2.00;;
3941;SDS011;1985;48.592;8.850;2023-08-06T03:47:36;9.13;;;2.22;;
3941;SDS011;1985;48.592;8.850;2023-08-06T03:50:02;9.18;;;2.17;;
3941;SDS011;1985;48.592;8.850;2023-08-06T03:52:28;9.30;;;2.10;;
3941;SDS011;1985;48.592;8.850;2023-08-06T03:54:53;9.40;;;2.25;;
3941;SDS011;1985;48.592;8.850;2023-08-06T03:57:19;9.50;;;1.87;;
3941;SDS011;1985;48.592;8.850;2023-08-06T03:59:45;9.57;;;2.00;;
3941;SDS011;1985;48.592;8.850;2023-08-06T04:02:10;9.55;;;2.10;;
3941;SDS011;1985;48.592;8.850;2023-08-06T04:04:36;12.93;;;2.33;;
3941;SDS011;1985;48.592;8.850;2023-08-06T04:07:01;10.10;;;2.70;;
3941;SDS011;1985;48.592;8.850;2023-08-06T04:09:28;10.37;;;2.40;;
3941;SDS011;1985;48.592;8.850;2023-08-06T04:11:54;11.50;;;2.60;;
3941;SDS011;1985;48.592;8.850;2023-08-06T04:14:21;10.15;;;2.10;;
3941;SDS011;1985;48.592;8.850;2023-08-06T04:16:46;9.70;;;2.10;;
3941;SDS011;1985;48.592;8.850;2023-08-06T04:19:12;8.80;;;1.60;;
3941;SDS011;1985;48.592;8.850;2023-08-06T04:21:37;8.95;;;1.10;;
3941;SDS011;1985;48.592;8.850;2023-08-06T04:24:03;9.27;;;1.43;;
3941;SDS011;1985;48.592;8.850;2023-08-06T04:26:29;8.80;;;1.20;;
3941;SDS011;1985;48.592;8.850;2023-08-06T04:28:54;8.10;;;1.20;;
3941;SDS011;1985;48.592;8.850;2023-08-06T04:31:20;10.30;;;1.50;;
3941;SDS011;1985;48.592;8.850;2023-08-06T04:33:46;8.70;;;1.15;;
3941;SDS011;1985;48.592;8.850;2023-08-06T04:36:12;8.63;;;1.10;;
3941;SDS011;1985;48.592;8.850;2023-08-06T04:38:38;8.60;;;1.10;;
3941;SDS011;1985;48.592;8.850;2023-08-06T04:41:03;8.55;;;1.25;;
3941;SDS011;1985;48.592;8.850;2023-08-06T04:43:29;8.30;;;1.30;;
3941;SDS011;1985;48.592;8.850;2023-08-06T04:45:55;7.75;;;1.00;;
3941;SDS011;1985;48.592;8.850;2023-08-06T04:48:21;7.50;;;1.10;;
3941;SDS011;1985;48.592;8.850;2023-08-06T04:50:47;9.18;;;1.38;;
3941;SDS011;1985;48.592;8.850;2023-08-06T04:53:14;9.40;;;1.20;;
3941;SDS011;1985;48.592;8.850;2023-08-06T04:55:40;7.30;;;1.00;;
3941;SDS011;1985;48.592;8.850;2023-08-06T04:58:06;9.63;;;1.40;;
3941;SDS011;1985;48.592;8.850;2023-08-06T05:00:32;8.03;;;1.00;;
3941;SDS011;1985;48.592;8.850;2023-08-06T05:02:59;9.38;;;1.30;;
3941;SDS011;1985;48.592;8.850;2023-08-06T05:05:26;9.73;;;1.30;;
3941;SDS011;1985;48.592;8.850;2023-08-06T05:07:53;8.63;;;1.25;;
3941;SDS011;1985;48.592;8.850;2023-08-06T05:10:19;7.60;;;1.15;;
3941;SDS011;1985;48.592;8.850;2023-08-06T05:12:45;8.05;;;1.10;;
3941;SDS011;1985;48.592;8.850;2023-08-06T05:15:11;7.90;;;1.10;;
3941;SDS011;1985;48.592;8.850;2023-08-06T05:17:36;8.80;;;1.40;;
3941;SDS011;1985;48.592;8.850;2023-08-06T05:20:02;8.70;;;1.30;;
3941;SDS011;1985;48.592;8.850;2023-08-06T05:22:28;10.32;;;1.20;;
3941;SDS011;1985;48.592;8.850;2023-08-06T05:24:54;8.03;;;1.00;;
3941;SDS011;1985;48.592;8.850;2023-08-06T05:27:19;9.27;;;1.40;;
3941;SDS011;1985;48.592;8.850;2023-08-06T05:29:45;8.50;;;1.10;;
3941;SDS011;1985;48.592;8.850;2023-08-06T05:32:11;8.40;;;1.20;;
3941;SDS011;1985;48.592;8.850;2023-08-06T05:34:36;7.82;;;1.10;;
3941;SDS011;1985;48.592;8.850;2023-08-06T05:37:02;7.90;;;1.10;;
3941;SDS011;1985;48.592;8.850;2023-08-06T05:39:28;8.38;;;1.13;;
3941;SDS011;1985;48.592;8.850;2023-08-06T05:41:54;10.00;;;1.10;;
3941;SDS011;1985;48.592;8.850;2023-08-06T05:44:20;8.00;;;1.07;;
3941;SDS011;1985;48.592;8.850;2023-08-06T05:46:46;9.50;;;1.20;;
3941;SDS011;1985;48.592;8.850;2023-08-06T05:49:12;9.60;;;1.30;;
3941;SDS011;1985;48.592;8.850;2023-08-06T05:51:38;7.50;;;1.00;;
3941;SDS011;1985;48.592;8.850;2023-08-06T05:54:04;10.57;;;1.10;;
3941;SDS011;1985;48.592;8.850;2023-08-06T05:56:30;10.80;;;1.40;;
3941;SDS011;1985;48.592;8.850;2023-08-06T05:58:55;7.53;;;0.90;;
3941;SDS011;1985;48.592;8.850;2023-08-06T06:01:21;8.32;;;1.50;;
3941;SDS011;1985;48.592;8.850;2023-08-06T06:03:47;8.33;;;1.17;;
3941;SDS011;1985;48.592;8.850;2023-08-06T06:06:12;8.10;;;1.08;;
3941;SDS011;1985;48.592;8.850;2023-08-06T06:08:38;11.00;;;1.40;;
3941;SDS011;1985;48.592;8.850;2023-08-06T06:11:03;9.23;;;1.03;;
3941;SDS011;1985;48.592;8.850;2023-08-06T06:13:29;9.35;;;1.20;;
3941;SDS011;1985;48.592;8.850;2023-08-06T06:15:55;8.80;;;1.20;;
3941;SDS011;1985;48.592;8.850;2023-08-06T06:18:21;7.35;;;1.00;;
3941;SDS011;1985;48.592;8.850;2023-08-06T06:20:47;8.68;;;1.13;;
3941;SDS011;1985;48.592;8.850;2023-08-06T06:23:12;8.00;;;1.10;;
3941;SDS011;1985;48.592;8.850;2023-08-06T06:25:42;7.65;;;1.10;;
3941;SDS011;1985;48.592;8.850;2023-08-06T06:28:09;10.65;;;1.50;;
3941;SDS011;1985;48.592;8.850;2023-08-06T06:30:34;8.47;;;1.20;;
3941;SDS011;1985;48.592;8.850;2023-08-06T06:33:00;10.27;;;1.27;;
3941;SDS011;1985;48.592;8.850;2023-08-06T06:35:25;7.40;;;1.00;;
3941;SDS011;1985;48.592;8.850;2023-08-06T06:37:51;12.60;;;1.20;;
3941;SDS011;1985;48.592;8.850;2023-08-06T06:40:17;7.80;;;1.00;;
3941;SDS011;1985;48.592;8.850;2023-08-06T06:42:42;7.40;;;0.90;;
3941;SDS011;1985;48.592;8.850;2023-08-06T06:45:08;8.00;;;1.10;;
3941;SDS011;1985;48.592;8.850;2023-08-06T06:47:34;7.70;;;1.00;;
3941;SDS011;1985;48.592;8.850;2023-08-06T06:50:00;8.00;;;1.10;;
3941;SDS011;1985;48.592;8.850;2023-08-06T06:52:25;7.20;;;0.90;;
3941;SDS011;1985;48.592;8.850;2023-08-06T06:54:51;6.97;;;0.80;;
3941;SDS011;1985;48.592;8.850;2023-08-06T06:57:16;8.60;;;1.10;;
3941;SDS011;1985;48.592;8.850;2023-08-06T06:59:42;7.20;;;0.90;;
3941;SDS011;1985;48.592;8.850;2023-08-06T07:02:08;7.20;;;0.70;;
3941;SDS011;1985;48.592;8.850;2023-08-06T07:04:33;6.90;;;0.70;;
3941;SDS011;1985;48.592;8.850;2023-08-06T07:06:59;7.00;;;0.80;;
3941;SDS011;1985;48.592;8.850;2023-08-06T07:09:24;7.00;;;0.80;;
3941;SDS011;1985;48.592;8.850;2023-08-06T07:11:50;6.90;;;0.70;;
3941;SDS011;1985;48.592;8.850;2023-08-06T07:14:17;7.00;;;0.80;;
3941;SDS011;1985;48.592;8.850;2023-08-06T07:16:42;7.00;;;0.75;;
3941;SDS011;1985;48.592;8.850;2023-08-06T07:19:08;7.83;;;0.70;;
3941;SDS011;1985;48.592;8.850;2023-08-06T07:21:33;7.10;;;0.70;;
3941;SDS011;1985;48.592;8.850;2023-08-06T07:23:59;7.05;;;0.73;;
3941;SDS011;1985;48.592;8.850;2023-08-06T07:26:25;7.20;;;0.70;;
3941;SDS011;1985;48.592;8.850;2023-08-06T07:28:52;7.60;;;0.90;;
3941;SDS011;1985;48.592;8.850;2023-08-06T07:31:17;7.10;;;0.70;;
3941;SDS011;1985;48.592;8.850;2023-08-06T07:33:43;7.10;;;0.70;;
3941;SDS011;1985;48.592;8.850;2023-08-06T07:36:11;6.93;;;0.70;;
3941;SDS011;1985;48.592;8.850;2023-08-06T07:38:38;7.28;;;0.80;;
3941;SDS011;1985;48.592;8.850;2023-08-06T07:41:04;7.30;;;0.90;;
3941;SDS011;1985;48.592;8.850;2023-08-06T07:43:30;7.00;;;0.70;;
3941;SDS011;1985;48.592;8.850;2023-08-06T07:45:59;8.00;;;0.80;;
3941;SDS011;1985;48.592;8.850;2023-08-06T07:48:25;7.50;;;0.90;;
3941;SDS011;1985;48.592;8.850;2023-08-06T07:50:54;7.00;;;0.80;;
3941;SDS011;1985;48.592;8.850;2023-08-06T07:53:21;6.90;;;0.70;;
3941;SDS011;1985;48.592;8.850;2023-08-06T07:55:49;7.32;;;0.90;;
3941;SDS011;1985;48.592;8.850;2023-08-06T07:58:16;6.90;;;0.70;;
3941;SDS011;1985;48.592;8.850;2023-08-06T08:00:41;8.60;;;0.80;;
3941;SDS011;1985;48.592;8.850;2023-08-06T08:03:10;6.90;;;0.70;;
3941;SDS011;1985;48.592;8.850;2023-08-06T08:05:37;7.10;;;0.80;;
3941;SDS011;1985;48.592;8.850;2023-08-06T08:08:03;7.10;;;0.80;;
3941;SDS011;1985;48.592;8.850;2023-08-06T08:10:28;7.10;;;0.80;;
3941;SDS011;1985;48.592;8.850;2023-08-06T08:12:54;8.50;;;0.80;;
3941;SDS011;1985;48.592;8.850;2023-08-06T08:15:20;7.00;;;0.70;;
3941;SDS011;1985;48.592;8.850;2023-08-06T08:17:45;7.10;;;0.80;;
3941;SDS011;1985;48.592;8.850;2023-08-06T08:20:13;7.20;;;0.80;;
3941;SDS011;1985;48.592;8.850;2023-08-06T08:22:40;7.00;;;0.70;;
3941;SDS011;1985;48.592;8.850;2023-08-06T08:25:05;7.40;;;0.70;;
3941;SDS011;1985;48.592;8.850;2023-08-06T08:27:31;6.93;;;0.80;;
3941;SDS011;1985;48.592;8.850;2023-08-06T08:29:57;7.10;;;0.70;;
3941;SDS011;1985;48.592;8.850;2023-08-06T08:32:22;7.67;;;0.90;;
3941;SDS011;1985;48.592;8.850;2023-08-06T08:34:49;7.00;;;0.70;;
3941;SDS011;1985;48.592;8.850;2023-08-06T08:37:14;6.90;;;0.80;;
3941;SDS011;1985;48.592;8.850;2023-08-06T08:39:40;9.43;;;0.80;;
3941;SDS011;1985;48.592;8.850;2023-08-06T08:42:06;6.80;;;0.70;;
3941;SDS011;1985;48.592;8.850;2023-08-06T08:44:32;6.90;;;0.70;;
3941;SDS011;1985;48.592;8.850;2023-08-06T08:46:59;6.90;;;0.70;;
3941;SDS011;1985;48.592;8.850;2023-08-06T08:49:26;7.30;;;0.70;;
3941;SDS011;1985;48.592;8.850;2023-08-06T08:51:52;7.10;;;0.80;;
3941;SDS011;1985;48.592;8.850;2023-08-06T08:54:20;6.80;;;0.70;;
3941;SDS011;1985;48.592;8.850;2023-08-06T08:56:49;6.87;;;0.70;;
3941;SDS011;1985;48.592;8.850;2023-08-06T08:59:14;6.90;;;0.80;;
3941;SDS011;1985;48.592;8.850;2023-08-06T09:01:40;6.90;;;0.70;;
3941;SDS011;1985;48.592;8.850;2023-08-06T09:04:07;7.50;;;0.80;;
3941;SDS011;1985;48.592;8.850;2023-08-06T09:06:36;6.80;;;0.70;;
3941;SDS011;1985;48.592;8.850;2023-08-06T09:09:08;6.80;;;0.70;;
3941;SDS011;1985;48.592;8.850;2023-08-06T09:11:39;6.80;;;0.70;;
3941;SDS011;1985;48.592;8.850;2023-08-06T09:14:08;7.10;;;0.80;;
3941;SDS011;1985;48.592;8.850;2023-08-06T09:16:37;7.28;;;1.10;;
3941;SDS011;1985;48.592;8.850;2023-08-06T09:19:10;7.25;;;1.05;;
3941;SDS011;1985;48.592;8.850;2023-08-06T09:21:40;7.40;;;1.10;;
3941;SDS011;1985;48.592;8.850;2023-08-06T09:24:07;6.80;;;0.70;;
3941;SDS011;1985;48.592;8.850;2023-08-06T09:26:33;6.90;;;0.77;;
3941;SDS011;1985;48.592;8.850;2023-08-06T09:28:59;7.65;;;0.70;;
3941;SDS011;1985;48.592;8.850;2023-08-06T09:31:25;7.07;;;0.90;;
3941;SDS011;1985;48.592;8.850;2023-08-06T09:33:59;8.80;;;0.80;;
3941;SDS011;1985;48.592;8.850;2023-08-06T09:36:26;8.40;;;1.20;;
3941;SDS011;1985;48.592;8.850;2023-08-06T09:38:52;8.98;;;2.17;;
3941;SDS011;1985;48.592;8.850;2023-08-06T09:43:50;13.18;;;1.10;;
3941;SDS011;1985;48.592;8.850;2023-08-06T09:46:15;9.48;;;1.33;;
3941;SDS011;1985;48.592;8.850;2023-08-06T09:48:44;9.30;;;2.20;;
3941;SDS011;1985;48.592;8.850;2023-08-06T09:51:11;8.95;;;1.80;;
3941;SDS011;1985;48.592;8.850;2023-08-06T09:53:39;9.38;;;2.25;;
3941;SDS011;1985;48.592;8.850;2023-08-06T09:56:06;17.23;;;7.70;;
3941;SDS011;1985;48.592;8.850;2023-08-06T09:58:31;16.60;;;6.63;;
3941;SDS011;1985;48.592;8.850;2023-08-06T10:00:58;10.15;;;2.08;;
3941;SDS011;1985;48.592;8.850;2023-08-06T10:03:26;9.00;;;1.70;;
3941;SDS011;1985;48.592;8.850;2023-08-06T10:05:55;7.80;;;1.33;;
3941;SDS011;1985;48.592;8.850;2023-08-06T10:08:21;7.10;;;1.00;;
3941;SDS011;1985;48.592;8.850;2023-08-06T10:10:47;7.53;;;1.10;;
3941;SDS011;1985;48.592;8.850;2023-08-06T10:13:13;10.57;;;2.47;;
3941;SDS011;1985;48.592;8.850;2023-08-06T10:15:39;10.35;;;1.48;;
3941;SDS011;1985;48.592;8.850;2023-08-06T10:18:05;11.30;;;2.00;;
3941;SDS011;1985;48.592;8.850;2023-08-06T10:20:34;7.57;;;0.80;;
3941;SDS011;1985;48.592;8.850;2023-08-06T10:23:04;7.00;;;0.90;;
3941;SDS011;1985;48.592;8.850;2023-08-06T10:25:33;6.90;;;0.80;;
3941;SDS011;1985;48.592;8.850;2023-08-06T10:28:00;6.95;;;0.90;;
3941;SDS011;1985;48.592;8.850;2023-08-06T10:32:57;7.80;;;0.90;;
3941;SDS011;1985;48.592;8.850;2023-08-06T10:37:57;6.90;;;0.80;;
3941;SDS011;1985;48.592;8.850;2023-08-06T10:40:24;6.80;;;0.80;;
3941;SDS011;1985;48.592;8.850;2023-08-06T10:42:51;7.20;;;0.80;;
3941;SDS011;1985;48.592;8.850;2023-08-06T10:45:17;7.10;;;0.80;;
3941;SDS011;1985;48.592;8.850;2023-08-06T10:47:43;6.80;;;0.80;;
3941;SDS011;1985;48.592;8.850;2023-08-06T10:50:13;7.00;;;0.80;;
3941;SDS011;1985;48.592;8.850;2023-08-06T10:52:45;7.10;;;0.80;;
3941;SDS011;1985;48.592;8.850;2023-08-06T10:55:12;6.80;;;0.70;;
3941;SDS011;1985;48.592;8.850;2023-08-06T10:57:48;7.00;;;0.70;;
3941;SDS011;1985;48.592;8.850;2023-08-06T11:00:13;9.20;;;0.90;;
3941;SDS011;1985;48.592;8.850;2023-08-06T11:02:39;6.90;;;0.80;;
3941;SDS011;1985;48.592;8.850;2023-08-06T11:05:06;6.80;;;0.70;;
3941;SDS011;1985;48.592;8.850;2023-08-06T11:07:35;6.80;;;0.80;;
3941;SDS011;1985;48.592;8.850;2023-08-06T11:10:02;6.70;;;0.70;;
3941;SDS011;1985;48.592;8.850;2023-08-06T11:12:28;6.85;;;0.75;;
3941;SDS011;1985;48.592;8.850;2023-08-06T11:14:54;7.20;;;0.80;;
3941;SDS011;1985;48.592;8.850;2023-08-06T11:17:20;6.80;;;0.70;;
3941;SDS011;1985;48.592;8.850;2023-08-06T11:19:46;7.00;;;0.80;;
3941;SDS011;1985;48.592;8.850;2023-08-06T11:22:12;6.77;;;0.70;;
3941;SDS011;1985;48.592;8.850;2023-08-06T11:24:39;6.90;;;0.80;;
3941;SDS011;1985;48.592;8.850;2023-08-06T11:27:14;7.60;;;0.80;;
3941;SDS011;1985;48.592;8.850;2023-08-06T11:29:42;6.82;;;0.80;;
3941;SDS011;1985;48.592;8.850;2023-08-06T11:32:09;7.00;;;0.80;;
3941;SDS011;1985;48.592;8.850;2023-08-06T11:34:35;7.35;;;1.00;;
3941;SDS011;1985;48.592;8.850;2023-08-06T11:37:05;7.10;;;0.90;;
3941;SDS011;1985;48.592;8.850;2023-08-06T11:39:35;6.95;;;0.82;;
3941;SDS011;1985;48.592;8.850;2023-08-06T11:42:02;7.40;;;0.95;;
3941;SDS011;1985;48.592;8.850;2023-08-06T11:44:32;6.93;;;0.90;;
3941;SDS011;1985;48.592;8.850;2023-08-06T11:47:02;7.20;;;0.90;;
3941;SDS011;1985;48.592;8.850;2023-08-06T11:52:15;7.88;;;1.10;;
3941;SDS011;1985;48.592;8.850;2023-08-06T11:54:44;7.00;;;0.90;;
3941;SDS011;1985;48.592;8.850;2023-08-06T11:57:25;7.10;;;0.90;;
3941;SDS011;1985;48.592;8.850;2023-08-06T11:59:50;7.40;;;1.10;;
3941;SDS011;1985;48.592;8.850;2023-08-06T12:02:16;9.70;;;1.10;;
3941;SDS011;1985;48.592;8.850;2023-08-06T12:05:01;8.77;;;1.00;;
3941;SDS011;1985;48.592;8.850;2023-08-06T12:07:39;8.80;;;1.30;;
3941;SDS011;1985;48.592;8.850;2023-08-06T12:10:07;8.00;;;1.27;;
3941;SDS011;1985;48.592;8.850;2023-08-06T12:12:33;8.07;;;1.33;;
3941;SDS011;1985;48.592;8.850;2023-08-06T12:15:00;8.30;;;1.63;;
3941;SDS011;1985;48.592;8.850;2023-08-06T12:17:25;9.48;;;1.40;;
3941;SDS011;1985;48.592;8.850;2023-08-06T12:19:51;7.78;;;1.30;;
3941;SDS011;1985;48.592;8.850;2023-08-06T12:22:17;8.63;;;1.60;;
3941;SDS011;1985;48.592;8.850;2023-08-06T12:24:43;8.60;;;1.30;;
3941;SDS011;1985;48.592;8.850;2023-08-06T12:27:10;8.68;;;1.40;;
3941;SDS011;1985;48.592;8.850;2023-08-06T12:29:47;7.68;;;1.23;;
3941;SDS011;1985;48.592;8.850;2023-08-06T12:32:13;8.70;;;1.30;;
3941;SDS011;1985;48.592;8.850;2023-08-06T12:34:41;8.30;;;1.10;;
3941;SDS011;1985;48.592;8.850;2023-08-06T12:37:07;7.30;;;1.13;;
3941;SDS011;1985;48.592;8.850;2023-08-06T12:39:34;8.20;;;1.20;;
3941;SDS011;1985;48.592;8.850;2023-08-06T12:42:04;7.00;;;0.90;;
3941;SDS011;1985;48.592;8.850;2023-08-06T12:44:30;7.50;;;1.10;;
3941;SDS011;1985;48.592;8.850;2023-08-06T12:46:56;7.38;;;1.08;;
3941;SDS011;1985;48.592;8.850;2023-08-06T12:49:22;8.20;;;1.20;;
3941;SDS011;1985;48.592;8.850;2023-08-06T12:51:51;8.00;;;1.00;;
3941;SDS011;1985;48.592;8.850;2023-08-06T12:54:17;6.93;;;0.85;;
3941;SDS011;1985;48.592;8.850;2023-08-06T12:56:46;7.00;;;0.90;;
3941;SDS011;1985;48.592;8.850;2023-08-06T12:59:15;7.05;;;0.90;;
3941;SDS011;1985;48.592;8.850;2023-08-06T13:01:42;7.20;;;1.00;;
3941;SDS011;1985;48.592;8.850;2023-08-06T13:04:08;7.40;;;1.00;;
3941;SDS011;1985;48.592;8.850;2023-08-06T13:06:33;7.10;;;1.00;;
3941;SDS011;1985;48.592;8.850;2023-08-06T13:09:02;7.43;;;0.90;;
3941;SDS011;1985;48.592;8.850;2023-08-06T13:11:29;8.25;;;1.00;;
3941;SDS011;1985;48.592;8.850;2023-08-06T13:13:59;7.70;;;1.10;;
3941;SDS011;1985;48.592;8.850;2023-08-06T13:16:30;7.63;;;1.00;;
3941;SDS011;1985;48.592;8.850;2023-08-06T13:18:56;7.78;;;1.35;;
3941;SDS011;1985;48.592;8.850;2023-08-06T13:21:21;7.50;;;1.00;;
3941;SDS011;1985;48.592;8.850;2023-08-06T13:23:47;8.10;;;1.00;;
3941;SDS011;1985;48.592;8.850;2023-08-06T13:26:13;7.10;;;1.00;;
3941;SDS011;1985;48.592;8.850;2023-08-06T13:28:40;7.30;;;1.00;;
3941;SDS011;1985;48.592;8.850;2023-08-06T13:31:06;7.10;;;1.00;;
3941;SDS011;1985;48.592;8.850;2023-08-06T13:33:32;7.40;;;0.93;;
3941;SDS011;1985;48.592;8.850;2023-08-06T13:35:58;7.15;;;1.00;;
3941;SDS011;1985;48.592;8.850;2023-08-06T13:38:23;7.60;;;1.20;;
3941;SDS011;1985;48.592;8.850;2023-08-06T13:40:49;8.57;;;1.10;;
3941;SDS011;1985;48.592;8.850;2023-08-06T13:43:14;9.70;;;1.38;;
3941;SDS011;1985;48.592;8.850;2023-08-06T13:45:42;7.32;;;1.05;;
3941;SDS011;1985;48.592;8.850;2023-08-06T13:48:07;8.60;;;1.03;;
3941;SDS011;1985;48.592;8.850;2023-08-06T13:50:34;8.70;;;1.00;;
3941;SDS011;1985;48.592;8.850;2023-08-06T13:53:01;6.90;;;0.80;;
3941;SDS011;1985;48.592;8.850;2023-08-06T13:55:27;7.05;;;0.82;;
3941;SDS011;1985;48.592;8.850;2023-08-06T13:57:53;8.97;;;1.00;;
3941;SDS011;1985;48.592;8.850;2023-08-06T14:00:18;7.00;;;0.80;;
3941;SDS011;1985;48.592;8.850;2023-08-06T14:02:44;7.47;;;0.90;;
3941;SDS011;1985;48.592;8.850;2023-08-06T14:05:10;7.40;;;0.90;;
3941;SDS011;1985;48.592;8.850;2023-08-06T14:07:35;7.25;;;1.00;;
3941;SDS011;1985;48.592;8.850;2023-08-06T14:10:01;7.73;;;1.10;;
3941;SDS011;1985;48.592;8.850;2023-08-06T14:12:27;7.20;;;0.90;;
3941;SDS011;1985;48.592;8.850;2023-08-06T14:14:52;7.53;;;0.98;;
3941;SDS011;1985;48.592;8.850;2023-08-06T14:17:18;7.40;;;1.00;;
3941;SDS011;1985;48.592;8.850;2023-08-06T14:19:43;7.20;;;0.90;;
3941;SDS011;1985;48.592;8.850;2023-08-06T14:22:09;7.38;;;1.00;;
3941;SDS011;1985;48.592;8.850;2023-08-06T14:24:34;9.20;;;0.90;;
3941;SDS011;1985;48.592;8.850;2023-08-06T14:27:00;7.30;;;1.00;;
3941;SDS011;1985;48.592;8.850;2023-08-06T14:29:26;7.80;;;1.20;;
3941;SDS011;1985;48.592;8.850;2023-08-06T14:31:51;7.70;;;1.00;;
3941;SDS011;1985;48.592;8.850;2023-08-06T14:34:17;7.70;;;0.97;;
3941;SDS011;1985;48.592;8.850;2023-08-06T14:36:42;7.20;;;1.00;;
3941;SDS011;1985;48.592;8.850;2023-08-06T14:39:08;6.90;;;0.85;;
3941;SDS011;1985;48.592;8.850;2023-08-06T14:41:34;7.63;;;1.03;;
3941;SDS011;1985;48.592;8.850;2023-08-06T14:43:59;8.70;;;1.00;;
3941;SDS011;1985;48.592;8.850;2023-08-06T14:46:25;7.15;;;1.00;;
3941;SDS011;1985;48.592;8.850;2023-08-06T14:48:50;7.87;;;1.20;;
3941;SDS011;1985;48.592;8.850;2023-08-06T14:51:16;7.38;;;1.00;;
3941;SDS011;1985;48.592;8.850;2023-08-06T14:53:44;7.30;;;1.00;;
3941;SDS011;1985;48.592;8.850;2023-08-06T14:56:10;7.70;;;1.10;;
3941;SDS011;1985;48.592;8.850;2023-08-06T14:58:35;8.13;;;1.27;;
3941;SDS011;1985;48.592;8.850;2023-08-06T15:01:01;7.93;;;1.10;;
3941;SDS011;1985;48.592;8.850;2023-08-06T15:03:27;7.13;;;0.90;;
3941;SDS011;1985;48.592;8.850;2023-08-06T15:05:53;7.30;;;1.05;;
3941;SDS011;1985;48.592;8.850;2023-08-06T15:08:18;7.13;;;1.10;;
3941;SDS011;1985;48.592;8.850;2023-08-06T15:10:53;7.50;;;1.10;;
3941;SDS011;1985;48.592;8.850;2023-08-06T15:13:19;7.57;;;1.13;;
3941;SDS011;1985;48.592;8.850;2023-08-06T15:15:48;7.60;;;1.30;;
3941;SDS011;1985;48.592;8.850;2023-08-06T15:18:15;8.10;;;1.30;;
3941;SDS011;1985;48.592;8.850;2023-08-06T15:20:40;7.60;;;1.15;;
3941;SDS011;1985;48.592;8.850;2023-08-06T15:23:06;8.57;;;1.30;;
3941;SDS011;1985;48.592;8.850;2023-08-06T15:25:31;7.80;;;1.20;;
3941;SDS011;1985;48.592;8.850;2023-08-06T15:27:57;8.63;;;1.20;;
3941;SDS011;1985;48.592;8.850;2023-08-06T15:30:23;7.10;;;1.00;;
3941;SDS011;1985;48.592;8.850;2023-08-06T15:32:48;7.43;;;1.20;;